Clarion, IA

09:58 CST le 20 février 2017 (GMT -0600)
Clarion Municipal | | Change Station

Alt. 1161 ft 42.74 °N, 93.76 °W | Updated 3 minutes ago

Overcast
Couvert
52 ° F
Paraît 52 ° F
N
13
Vent Variable Vent de SSE

Aujourd'hui
Haut(e) -- | Bas -- ° F
--% Risque de précip.
Hier
Haut(e) -- | Bas -- ° F
Precip. -- pouce
Pression 29.81 pouce
Visibilité 2.0 Miles terrestres
Nuages Couvert 300 ft
Point de rosée 52 ° F
Humidité 100%
Précipitations 0.58 pouce
Profondeur de la couche neigeuse Non disponible.
7:04 AM 5:53 PM
Lune descendante, 33% visible
METAR KCAV 201555Z AUTO 16011KT 2SM BR OVC003 11/11 A2981 RMK AO2 P0002 PWINO
Pression 29.81 pouce
Visibilité 2.0 Miles terrestres
Nuages Couvert 300 ft
Point de rosée 52 ° F
Humidité 100%
Précipitations 0.58 pouce
Profondeur de la couche neigeuse Non disponible.
7:04 AM 5:53 PM
Lune descendante, 33% visible
METAR KCAV 201555Z AUTO 16011KT 2SM BR OVC003 11/11 A2981 RMK AO2 P0002 PWINO

Get Your Daily Forecast Email!

Thanks for signing up!

Be on the lookout for a verification email in your inbox.

You'll start receiving the daily forecast at 8 AM.

×

10-Day Weather Forecast

Almanac

Astronomie

Feb. 20, 2017 Lever Coucher
Temps réel
Crépuscule civil
Crépuscule nautique
Crépuscule astronomique
Lune
Durée de lumière visible
Longueur du jour
Tomorrow will be .
, % of the Moon is Illuminated

Extrêmes aujourd'hui

State Highs State Lows

Community

WunderPhotos

Upload Photos

1,962,540 Photos téléchargées !

WunderBlog® & News

Nearby

Qualité de l'air

  Qualité de l'air Indice de la qualité de l'air Polluant
Not available.

Épaisseur de neige

Station Depth Altitude

Activité sismique

Ville Distance Mag. Time & Date
Minimum magnitude displayed is 2.5.

Températures des eaux côtières

Lieu Température

Stations

Stations météo à proximité

Emplacement de la station Température Refroidissement éolien Point de rosée Humidité Vent Precip. Alt. Mise à jour Type
                   

Watches & Warnings

There are currently no watches in effect.